Time;durP1;ratioP1;P1;durP2;ratioP2;P2;SDS_P1;SDS_P2;PMS_P1;PMS_P2;Temp;Humidity;BMP_temperature;BMP_pressure;BME280_temperature;BME280_humidity;BME280_pressure;Samples;Min_cycle;Max_cycle;Signal;HPM_P1;HPM_P2
2022/08/15 00:01:36;;;;;;;2.30;1.45;;;19.80;99.60;;;;;;4970596;28;20050;-82
2022/08/15 00:04:03;;;;;;;2.38;1.60;;;19.70;99.70;;;;;;4967371;28;20499;-82
2022/08/15 00:06:40;;;;;;;1.90;1.27;;;19.40;99.90;;;;;;4967110;28;20431;-83
2022/08/15 00:09:12;;;;;;;3.40;1.65;;;18.80;99.70;;;;;;4964069;28;20042;-81
2022/08/15 00:11:41;;;;;;;3.53;1.73;;;19.70;99.50;;;;;;4968329;28;20407;-82
2022/08/15 00:14:21;;;;;;;2.28;1.35;;;18.50;99.40;;;;;;4965211;28;20384;-82
2022/08/15 00:16:48;;;;;;;2.05;1.23;;;;;;;;;;4970054;28;20134;-83
2022/08/15 00:19:17;;;;;;;5.15;2.33;;;19.10;99.90;;;;;;4970909;28;20089;-83
2022/08/15 00:21:47;;;;;;;3.17;1.80;;;19.70;99.60;;;;;;4967822;28;20034;-83
2022/08/15 00:24:17;;;;;;;5.45;1.98;;;18.50;99.00;;;;;;4963985;28;20031;-82
2022/08/15 00:26:45;;;;;;;3.10;1.65;;;19.70;99.30;;;;;;4972779;28;20030;-83
2022/08/15 00:29:12;;;;;;;3.85;1.48;;;;;;;;;;4970493;28;20019;-83
2022/08/15 00:31:39;;;;;;;4.20;1.83;;;19.80;99.30;;;;;;4972379;28;20121;-84
2022/08/15 00:34:05;;;;;;;2.47;1.30;;;;;;;;;;4969510;28;20030;-83
2022/08/15 00:36:31;;;;;;;2.63;1.38;;;;;;;;;;4969091;28;20030;-84
2022/08/15 00:38:58;;;;;;;2.25;1.25;;;19.70;99.30;;;;;;4968525;28;20041;-84
2022/08/15 00:41:39;;;;;;;3.58;1.77;;;;;;;;;;4966539;28;20050;-83
2022/08/15 00:44:12;;;;;;;2.17;1.20;;;18.90;98.90;;;;;;4969342;28;20038;-83
2022/08/15 00:46:39;;;;;;;3.08;1.60;;;19.90;99.30;;;;;;4971693;28;20041;-83
2022/08/15 00:49:05;;;;;;;3.70;1.58;;;;;;;;;;4973828;28;20592;-81
2022/08/15 00:51:39;;;;;;;2.22;1.40;;;18.90;99.20;;;;;;4972189;28;20046;-83
2022/08/15 00:54:41;;;;;;;2.97;1.80;;;19.70;98.90;;;;;;4970544;28;20031;-83
2022/08/15 00:57:37;;;;;;;3.00;1.48;;;19.50;99.90;;;;;;4967142;28;20217;-83
2022/08/15 01:00:18;;;;;;;2.33;1.15;;;19.90;99.00;;;;;;4984623;28;20065;-82
2022/08/15 01:02:45;;;;;;;4.38;1.92;;;20.00;99.30;;;;;;4983766;28;20029;-81
2022/08/15 01:05:13;;;;;;;4.75;1.63;;;19.20;99.20;;;;;;4991333;28;20050;-83
2022/08/15 01:07:41;;;;;;;3.65;1.25;;;;;;;;;;4984061;28;20091;-82
2022/08/15 01:10:07;;;;;;;2.83;1.23;;;18.80;99.10;;;;;;4979583;28;20070;-83
2022/08/15 01:12:33;;;;;;;4.13;1.55;;;19.50;99.90;;;;;;4980034;28;20030;-82
2022/08/15 01:15:04;;;;;;;2.78;0.98;;;19.40;99.90;;;;;;4978849;28;20380;-83
2022/08/15 01:17:31;;;;;;;3.50;1.23;;;19.80;99.90;;;;;;4967471;28;20027;-83
2022/08/15 01:20:05;;;;;;;2.85;1.55;;;19.60;99.10;;;;;;4967169;28;20058;-82
2022/08/15 01:22:41;;;;;;;3.90;1.58;;;19.80;99.90;;;;;;4968787;28;20039;-83
2022/08/15 01:25:13;;;;;;;3.72;1.20;;;19.70;98.90;;;;;;4968994;28;20037;-82
2022/08/15 01:27:59;;;;;;;2.65;0.88;;;19.80;99.90;;;;;;4963044;28;20042;-83
2022/08/15 01:30:29;;;;;;;8.35;2.45;;;20.00;99.50;;;;;;4967658;28;20038;-83
2022/08/15 01:32:55;;;;;;;3.72;1.55;;;20.20;99.50;;;;;;4966667;28;20502;-83
2022/08/15 01:35:21;;;;;;;1.95;1.15;;;20.20;99.50;;;;;;4969334;28;20094;-83
2022/08/15 01:37:51;;;;;;;5.13;2.03;;;;;;;;;;4969866;28;20035;-82
2022/08/15 01:40:39;;;;;;;1.52;0.90;;;20.10;99.10;;;;;;4966324;28;20061;-82
2022/08/15 01:43:10;;;;;;;6.25;2.38;;;20.40;99.60;;;;;;4974948;28;20025;-82
2022/08/15 01:45:39;;;;;;;2.55;1.27;;;20.40;99.50;;;;;;4984028;28;20027;-82
2022/08/15 01:48:24;;;;;;;3.10;1.30;;;20.70;99.30;;;;;;4968767;28;20489;-82
2022/08/15 01:50:56;;;;;;;2.95;1.67;;;20.90;99.00;;;;;;4969231;28;20692;-83
2022/08/15 01:53:35;;;;;;;5.85;1.50;;;20.60;99.90;;;;;;4968180;28;21680;-82
2022/08/15 01:56:05;;;;;;;2.17;1.38;;;20.50;98.30;;;;;;4971197;28;20039;-81
2022/08/15 01:58:37;;;;;;;6.60;1.73;;;20.20;99.10;;;;;;4974700;28;20030;-82
2022/08/15 02:01:10;;;;;;;3.45;1.45;;;21.40;99.90;;;;;;4979005;28;20035;-82
2022/08/15 02:03:39;;;;;;;2.53;1.30;;;20.90;98.30;;;;;;4977287;28;20030;-81
2022/08/15 02:06:09;;;;;;;5.22;2.35;;;21.00;98.40;;;;;;4980409;28;20449;-81
2022/08/15 02:08:36;;;;;;;1.95;0.93;;;20.20;99.70;;;;;;4965286;28;20121;-82
2022/08/15 02:11:07;;;;;;;3.25;1.67;;;20.90;98.90;;;;;;4971841;28;20118;-82
2022/08/15 02:13:33;;;;;;;1.70;0.95;;;;;;;;;;4967733;28;20089;-82
2022/08/15 02:16:01;;;;;;;3.47;1.95;;;;;;;;;;4969081;28;20030;-83
2022/08/15 02:18:27;;;;;;;5.00;1.40;;;21.30;99.90;;;;;;4972194;28;20031;-82
2022/08/15 02:20:54;;;;;;;4.90;1.10;;;20.10;99.90;;;;;;4966304;28;20046;-83
2022/08/15 02:23:20;;;;;;;2.05;1.13;;;;;;;;;;4967562;28;20635;-82
2022/08/15 02:25:47;;;;;;;1.85;1.15;;;20.70;99.50;;;;;;4967969;28;20031;-82
2022/08/15 02:28:13;;;;;;;1.13;0.73;;;;;;;;;;4968364;28;20050;-83
2022/08/15 02:30:39;;;;;;;3.50;1.35;;;;;;;;;;4965590;28;20515;-83
2022/08/15 02:33:05;;;;;;;2.40;1.33;;;;;;;;;;4966927;28;20026;-82
2022/08/15 02:35:30;;;;;;;2.80;1.33;;;20.10;99.90;;;;;;4976334;28;20030;-83
2022/08/15 02:38:01;;;;;;;2.08;0.93;;;20.60;99.90;;;;;;4974256;28;21074;-83
2022/08/15 02:40:28;;;;;;;3.47;1.23;;;19.90;99.90;;;;;;4967181;28;20499;-82
2022/08/15 02:42:53;;;;;;;2.35;1.33;;;;;;;;;;4967390;28;20381;-82
2022/08/15 02:45:19;;;;;;;4.78;1.27;;;;;;;;;;4970036;28;20037;-82
2022/08/15 02:47:45;;;;;;;2.80;1.30;;;;;;;;;;4969261;28;20055;-82
2022/08/15 02:50:14;;;;;;;6.38;1.23;;;19.60;99.90;;;;;;4971505;28;20090;-82
2022/08/15 02:52:42;;;;;;;2.38;1.30;;;20.10;99.90;;;;;;4972537;28;20597;-83
2022/08/15 02:55:10;;;;;;;2.03;0.93;;;19.40;99.90;;;;;;4971089;28;20045;-82
2022/08/15 02:57:36;;;;;;;3.58;1.80;;;;;;;;;;4973623;28;20026;-82
2022/08/15 03:00:05;;;;;;;2.58;1.50;;;20.30;99.90;;;;;;4971598;28;20806;-82
2022/08/15 03:02:48;;;;;;;2.53;1.40;;;20.60;99.90;;;;;;4972326;28;20046;-83
2022/08/15 03:05:14;;;;;;;3.83;1.85;;;;;;;;;;4973041;28;20023;-82
2022/08/15 03:07:41;;;;;;;1.95;1.02;;;;;;;;;;4970121;28;20042;-82
2022/08/15 03:10:07;;;;;;;2.80;1.23;;;20.20;99.90;;;;;;4967467;28;20101;-83
2022/08/15 03:12:33;;;;;;;5.05;1.67;;;;;;;;;;4969063;28;20027;-81
2022/08/15 03:15:00;;;;;;;2.00;1.05;;;20.40;99.90;;;;;;4973797;28;20547;-82
2022/08/15 03:17:26;;;;;;;2.95;0.80;;;;;;;;;;4974882;28;20041;-82
2022/08/15 03:19:53;;;;;;;1.95;1.15;;;;;;;;;;4965886;28;20038;-81
2022/08/15 03:22:20;;;;;;;3.65;1.10;;;;;;;;;;4951854;28;20126;-81
2022/08/15 03:24:46;;;;;;;5.68;1.17;;;;;;;;;;4967033;28;20050;-82
2022/08/15 03:27:12;;;;;;;3.15;1.05;;;20.10;99.90;;;;;;4971093;28;20054;-83
2022/08/15 03:29:39;;;;;;;11.23;1.77;;;;;;;;;;4973685;28;20106;-84
2022/08/15 03:32:12;;;;;;;4.43;1.20;;;20.20;99.90;;;;;;4969187;28;20522;-82
2022/08/15 03:34:37;;;;;;;;;;;20.60;99.90;;;;;;4968933;28;20121;-81
2022/08/15 03:37:03;;;;;;;4.85;1.30;;;;;;;;;;4973438;28;20005;-82
2022/08/15 03:39:29;;;;;;;5.03;1.55;;;;;;;;;;4965321;28;20063;-81
2022/08/15 03:41:55;;;;;;;1.98;1.13;;;;;;;;;;4962559;28;20039;-82
2022/08/15 03:44:22;;;;;;;6.68;1.50;;;;;;;;;;4970636;28;20022;-82
2022/08/15 03:46:48;;;;;;;3.70;1.77;;;21.30;99.90;;;;;;4974257;28;20054;-83
2022/08/15 03:49:15;;;;;;;2.33;1.27;;;;;;;;;;4972114;28;20504;-82
2022/08/15 03:51:41;;;;;;;2.50;1.33;;;20.10;99.90;;;;;;4969163;28;20114;-83
2022/08/15 03:54:06;;;;;;;3.22;1.17;;;20.90;99.90;;;;;;4967787;28;20705;-82
2022/08/15 03:56:33;;;;;;;1.85;1.05;;;;;;;;;;4968843;28;20049;-82
2022/08/15 03:59:00;;;;;;;4.53;1.92;;;24.20;99.90;;;;;;4963008;28;20042;-82
2022/08/15 04:01:29;;;;;;;1.77;0.88;;;20.60;99.90;;;;;;4967237;28;20070;-82
2022/08/15 04:03:55;;;;;;;3.20;1.65;;;;;;;;;;4970587;28;20030;-82
2022/08/15 04:06:23;;;;;;;3.65;1.85;;;20.80;99.90;;;;;;4972092;28;20116;-82
2022/08/15 04:08:50;;;;;;;3.47;1.63;;;20.80;99.90;;;;;;4968383;28;20045;-82
2022/08/15 04:11:17;;;;;;;4.63;1.58;;;;;;;;;;4965648;28;20030;-83
2022/08/15 04:13:43;;;;;;;1.88;1.00;;;;;;;;;;4965247;28;20146;-84
2022/08/15 04:16:09;;;;;;;4.43;1.60;;;20.70;99.90;;;;;;4965684;28;20035;-82
2022/08/15 04:18:36;;;;;;;3.50;1.15;;;20.60;99.90;;;;;;4966380;28;20039;-82
2022/08/15 04:21:05;;;;;;;7.30;2.00;;;21.40;99.90;;;;;;4968519;28;20614;-83
2022/08/15 04:23:31;;;;;;;2.35;1.20;;;;;;;;;;4963269;28;20027;-82
2022/08/15 04:25:57;;;;;;;2.83;1.60;;;;;;;;;;4958675;28;20030;-82
2022/08/15 04:28:24;;;;;;;5.38;1.58;;;20.50;99.90;;;;;;4967055;28;20852;-82
2022/08/15 04:30:50;;;;;;;2.38;1.25;;;;;;;;;;4966344;28;20531;-83
2022/08/15 04:33:22;;;;;;;4.40;1.30;;;20.50;99.90;;;;;;4969828;28;20130;-82
2022/08/15 04:35:54;;;;;;;2.45;1.80;;;20.50;99.90;;;;;;4967668;28;20034;-81
2022/08/15 04:38:20;;;;;;;1.70;1.30;;;;;;;;;;4965711;28;20514;-81
2022/08/15 04:40:47;;;;;;;2.35;1.30;;;20.10;99.90;;;;;;4957753;28;20039;-82
2022/08/15 04:43:13;;;;;;;2.50;1.42;;;;;;;;;;4964204;28;20144;-82
2022/08/15 04:45:40;;;;;;;2.58;1.30;;;20.20;99.90;;;;;;4969690;28;20046;-80
2022/08/15 04:48:08;;;;;;;5.20;1.75;;;20.50;99.90;;;;;;4965418;28;20102;-79
2022/08/15 04:50:37;;;;;;;2.45;1.15;;;19.50;99.90;;;;;;4961434;28;20740;-79
2022/08/15 04:53:04;;;;;;;3.67;1.58;;;19.40;99.90;;;;;;4969759;28;20019;-80
2022/08/15 04:55:30;;;;;;;2.40;1.13;;;20.10;99.90;;;;;;4966421;28;20023;-81
2022/08/15 04:57:56;;;;;;;3.65;1.75;;;20.50;99.90;;;;;;4969738;28;20526;-80
2022/08/15 05:00:28;;;;;;;2.63;1.38;;;20.00;99.90;;;;;;4965194;28;20026;-79
2022/08/15 05:03:01;;;;;;;1.98;1.23;;;20.90;99.90;;;;;;4974045;28;20042;-79
2022/08/15 05:05:28;;;;;;;2.70;1.42;;;20.00;99.90;;;;;;4964622;28;20476;-79
2022/08/15 05:07:54;;;;;;;4.80;1.67;;;;;;;;;;4971125;28;20034;-78
2022/08/15 05:10:20;;;;;;;5.78;1.50;;;;;;;;;;4960380;28;20070;-78
2022/08/15 05:12:46;;;;;;;5.60;1.13;;;;;;;;;;4960630;28;20037;-78
2022/08/15 05:15:15;;;;;;;2.03;1.20;;;20.60;99.90;;;;;;4962373;28;20027;-79
2022/08/15 05:17:41;;;;;;;5.07;1.50;;;;;;;;;;4968351;28;20026;-80
2022/08/15 05:20:08;;;;;;;3.50;1.58;;;20.70;99.90;;;;;;4964158;28;20042;-80
2022/08/15 05:22:34;;;;;;;4.90;1.55;;;;;;;;;;4969208;28;20431;-80
2022/08/15 05:24:59;;;;;;;2.15;1.10;;;20.70;99.90;;;;;;4963234;28;20092;-79
2022/08/15 05:27:25;;;;;;;2.83;1.35;;;;;;;;;;4965841;28;20583;-81
2022/08/15 05:29:51;;;;;;;2.28;0.80;;;;;;;;;;4962209;28;20046;-81
2022/08/15 05:32:19;;;;;;;2.63;1.13;;;21.30;99.90;;;;;;4969126;28;20606;-81
2022/08/15 05:34:47;;;;;;;1.70;0.88;;;21.70;99.90;;;;;;4963936;28;20023;-84
2022/08/15 05:37:13;;;;;;;3.67;1.58;;;21.10;99.90;;;;;;4964248;28;20031;-82
2022/08/15 05:39:41;;;;;;;4.25;1.15;;;20.70;99.90;;;;;;4966986;28;20030;-81
2022/08/15 05:42:47;;;;;;;2.08;0.88;;;20.60;99.90;;;;;;4971541;28;20039;-81
2022/08/15 05:45:32;;;;;;;3.38;1.50;;;21.50;99.90;;;;;;4968706;28;20057;-81
2022/08/15 05:48:24;;;;;;;4.57;1.65;;;20.90;99.90;;;;;;4973972;28;20035;-81
2022/08/15 05:51:09;;;;;;;5.28;0.95;;;20.80;99.90;;;;;;4970168;28;20109;-82
2022/08/15 05:53:47;;;;;;;1.45;0.80;;;21.70;99.90;;;;;;4966688;28;20080;-81
2022/08/15 05:56:43;;;;;;;1.50;1.10;;;21.40;99.90;;;;;;4972093;28;20041;-84
2022/08/15 05:59:13;;;;;;;1.90;0.82;;;20.90;99.90;;;;;;4969866;28;20039;-83
2022/08/15 06:01:44;;;;;;;2.13;1.17;;;21.20;99.90;;;;;;4958252;28;20051;-85
2022/08/15 06:04:34;;;;;;;3.30;0.88;;;21.80;99.90;;;;;;4969746;28;20822;-83
2022/08/15 06:07:06;;;;;;;2.55;1.08;;;21.00;99.90;;;;;;4974028;28;20026;-84
2022/08/15 06:09:40;;;;;;;4.05;1.00;;;21.20;99.90;;;;;;4969654;28;20049;-84
2022/08/15 06:12:34;;;;;;;2.85;1.08;;;21.20;99.90;;;;;;4972421;28;20026;-85
2022/08/15 06:15:18;;;;;;;1.58;1.10;;;21.30;99.90;;;;;;4968687;28;20130;-84
2022/08/15 06:17:50;;;;;;;5.60;1.00;;;21.10;99.90;;;;;;4974691;28;20046;-85
2022/08/15 06:20:20;;;;;;;3.67;1.40;;;21.10;99.90;;;;;;4988455;28;20015;-84
2022/08/15 06:22:58;;;;;;;3.95;1.45;;;;;;;;;;4988108;28;20050;-85
2022/08/15 06:25:45;;;;;;;2.28;1.10;;;20.90;99.90;;;;;;4988066;28;20109;-84
2022/08/15 06:28:37;;;;;;;1.83;1.30;;;21.80;99.90;;;;;;4982805;28;20068;-83
2022/08/15 06:31:31;;;;;;;2.28;0.98;;;21.30;99.90;;;;;;4966941;28;20063;-83
2022/08/15 06:34:30;;;;;;;2.75;1.10;;;21.10;99.90;;;;;;4969960;28;20088;-85
2022/08/15 06:37:21;;;;;;;0.88;0.50;;;21.80;99.90;;;;;;4975299;28;20507;-81
2022/08/15 06:40:16;;;;;;;3.97;1.40;;;22.10;99.90;;;;;;4972769;28;20038;-82
2022/08/15 06:42:44;;;;;;;2.42;1.23;;;21.50;99.90;;;;;;4976705;28;20403;-82
2022/08/15 06:45:13;;;;;;;2.95;1.05;;;21.40;99.90;;;;;;4976966;28;20073;-82
2022/08/15 06:47:39;;;;;;;2.30;1.00;;;21.30;99.90;;;;;;4974366;28;20057;-81
2022/08/15 06:50:16;;;;;;;1.58;0.80;;;22.20;99.90;;;;;;4967121;28;20118;-82
2022/08/15 06:52:54;;;;;;;3.83;1.08;;;21.60;99.90;;;;;;4966679;28;20073;-81
2022/08/15 06:55:22;;;;;;;3.35;1.38;;;21.50;99.90;;;;;;4970754;28;20034;-82
2022/08/15 06:57:48;;;;;;;3.45;1.42;;;;;;;;;;4969500;28;20046;-82
2022/08/15 07:00:33;;;;;;;3.72;1.08;;;22.30;99.90;;;;;;4970268;28;20051;-82
2022/08/15 07:03:05;;;;;;;1.90;0.93;;;22.40;99.90;;;;;;4973377;28;20114;-82
2022/08/15 07:05:43;;;;;;;2.92;0.90;;;22.00;99.90;;;;;;4976595;28;20050;-82
2022/08/15 07:08:20;;;;;;;3.95;1.33;;;22.40;99.90;;;;;;4971957;28;20116;-83
2022/08/15 07:10:58;;;;;;;2.92;1.20;;;22.50;99.90;;;;;;4969133;28;20026;-82
2022/08/15 07:13:29;;;;;;;2.40;0.90;;;22.50;99.90;;;;;;4970430;28;20031;-81
2022/08/15 07:16:12;;;;;;;1.40;0.68;;;22.50;99.90;;;;;;4969373;28;20038;-82
2022/08/15 07:18:39;;;;;;;4.20;1.00;;;22.70;99.90;;;;;;4964977;28;20042;-81
2022/08/15 07:21:17;;;;;;;1.20;0.80;;;23.10;99.90;;;;;;4963992;28;20053;-83
2022/08/15 07:24:09;;;;;;;2.35;1.00;;;22.50;99.90;;;;;;4974329;28;20042;-82
2022/08/15 07:26:48;;;;;;;1.65;0.98;;;22.80;99.90;;;;;;4974148;28;20027;-81
2022/08/15 07:29:30;;;;;;;1.77;0.95;;;22.70;99.90;;;;;;4972949;28;20412;-82
2022/08/15 07:32:08;;;;;;;1.33;0.68;;;22.90;99.90;;;;;;4973152;28;20115;-81
2022/08/15 07:34:36;;;;;;;1.40;0.90;;;;;;;;;;4972629;28;20507;-81
2022/08/15 07:37:06;;;;;;;1.58;0.93;;;22.10;99.90;;;;;;4969399;28;20026;-81
2022/08/15 07:39:36;;;;;;;1.30;0.88;;;22.70;99.90;;;;;;4963427;28;20085;-80
2022/08/15 07:42:20;;;;;;;1.90;1.00;;;;;;;;;;4967174;28;20074;-82
2022/08/15 07:45:08;;;;;;;1.17;0.80;;;24.10;99.80;;;;;;4964750;28;20030;-81
2022/08/15 07:47:35;;;;;;;1.77;0.88;;;;;;;;;;4969272;28;20042;-81
2022/08/15 07:50:29;;;;;;;1.67;1.10;;;23.70;99.10;;;;;;4966779;28;20033;-83
2022/08/15 07:52:59;;;;;;;2.15;0.98;;;23.40;98.60;;;;;;4970749;28;20443;-81
2022/08/15 07:55:25;;;;;;;3.15;1.13;;;24.00;99.90;;;;;;4970356;28;20499;-82
2022/08/15 07:58:03;;;;;;;1.73;0.85;;;25.00;97.40;;;;;;4963457;28;20042;-82
2022/08/15 08:00:34;;;;;;;3.10;1.35;;;24.70;97.20;;;;;;4968237;28;20065;-83
2022/08/15 08:03:05;;;;;;;2.35;1.45;;;23.90;99.90;;;;;;4966846;28;20034;-84
2022/08/15 08:05:57;;;;;;;1.83;1.08;;;24.00;97.50;;;;;;4969271;28;20031;-83
2022/08/15 08:08:33;;;;;;;1.85;1.17;;;24.60;97.90;;;;;;4984721;28;20638;-83
2022/08/15 08:11:13;;;;;;;4.90;1.38;;;24.40;97.60;;;;;;4963603;28;20041;-82
2022/08/15 08:14:10;;;;;;;2.30;1.33;;;24.60;97.40;;;;;;4968625;28;20086;-84
2022/08/15 08:16:45;;;;;;;2.40;0.82;;;24.70;97.30;;;;;;4947440;28;20415;-83
2022/08/15 08:19:27;;;;;;;2.70;1.13;;;;;;;;;;4967252;28;20403;-82
2022/08/15 08:22:17;;;;;;;2.20;0.95;;;25.20;95.80;;;;;;4970876;28;20050;-82
2022/08/15 08:24:51;;;;;;;1.63;0.77;;;25.60;95.00;;;;;;4966113;28;20101;-82
2022/08/15 08:27:30;;;;;;;1.20;0.75;;;;;;;;;;4972196;28;20479;-82
2022/08/15 08:30:05;;;;;;;3.00;1.20;;;25.10;94.90;;;;;;4975401;28;20480;-81
2022/08/15 08:32:59;;;;;;;4.15;0.90;;;25.30;95.60;;;;;;4969868;28;20499;-83
2022/08/15 08:35:34;;;;;;;1.63;0.80;;;;;;;;;;4968364;28;20046;-82
2022/08/15 08:38:07;;;;;;;3.25;1.08;;;24.30;96.90;;;;;;4974342;28;20805;-80
2022/08/15 08:43:51;;;;;;;4.30;0.77;;;24.50;95.00;;;;;;4968629;28;20042;-81
2022/08/15 08:46:42;;;;;;;1.73;0.70;;;24.50;94.80;;;;;;4968582;28;20066;-80
2022/08/15 08:49:08;;;;;;;2.08;1.15;;;;;;;;;;4968840;28;20062;-81
2022/08/15 08:52:02;;;;;;;4.60;0.88;;;24.20;95.40;;;;;;4968105;28;20034;-81
2022/08/15 08:55:00;;;;;;;2.08;0.88;;;24.10;95.90;;;;;;4969218;28;20058;-80
2022/08/15 08:57:43;;;;;;;10.27;1.42;;;23.60;96.30;;;;;;4971199;28;20045;-80
2022/08/15 09:00:14;;;;;;;4.15;0.93;;;24.50;96.50;;;;;;4971351;28;20035;-81
2022/08/15 09:03:14;;;;;;;2.38;0.95;;;23.70;95.30;;;;;;4970186;28;20098;-80
2022/08/15 09:05:51;;;;;;;0.70;0.40;;;25.30;94.20;;;;;;4973249;28;20027;-81
2022/08/15 09:08:32;;;;;;;1.20;0.70;;;26.30;92.00;;;;;;4971090;28;20049;-82
2022/08/15 09:11:19;;;;;;;0.80;0.57;;;28.70;86.80;;;;;;4962534;28;20030;-82
2022/08/15 09:13:50;;;;;;;1.40;0.63;;;30.00;88.60;;;;;;4968780;28;20030;-81
2022/08/15 09:16:51;;;;;;;0.73;0.40;;;32.10;69.20;;;;;;4968190;28;20030;-81
2022/08/15 09:19:26;;;;;;;2.75;0.80;;;32.80;66.20;;;;;;4969429;28;20127;-80
2022/08/15 09:21:51;;;;;;;2.85;0.60;;;32.20;65.20;;;;;;4976567;28;20085;-83
2022/08/15 09:24:20;;;;;;;1.48;0.50;;;32.20;60.80;;;;;;4963975;28;20054;-82
2022/08/15 09:27:10;;;;;;;1.65;0.75;;;31.30;62.90;;;;;;4974021;28;20134;-83
2022/08/15 09:29:43;;;;;;;1.17;0.60;;;30.40;66.40;;;;;;4972185;28;20173;-83
2022/08/15 09:32:53;;;;;;;0.57;0.50;;;29.30;78.40;;;;;;4970841;28;20031;-82
2022/08/15 09:35:19;;;;;;;1.08;0.80;;;;;;;;;;4973489;28;20551;-82
2022/08/15 09:38:00;;;;;;;3.17;0.85;;;28.10;72.20;;;;;;4973749;28;20157;-82
2022/08/15 09:40:34;;;;;;;1.90;0.90;;;26.80;85.80;;;;;;4972227;28;20070;-80
2022/08/15 09:43:06;;;;;;;0.85;0.80;;;27.00;75.30;;;;;;4974549;28;20594;-81
2022/08/15 09:45:34;;;;;;;1.00;0.57;;;;;;;;;;4971897;28;20023;-82
2022/08/15 09:48:24;;;;;;;0.98;0.68;;;27.10;74.70;;;;;;4981022;28;20031;-81
2022/08/15 09:50:57;;;;;;;1.00;0.55;;;27.30;75.50;;;;;;4965683;28;20042;-82
2022/08/15 09:54:04;;;;;;;1.77;0.70;;;27.10;74.60;;;;;;4969406;28;20135;-82
2022/08/15 09:56:36;;;;;;;1.08;0.50;;;26.70;85.00;;;;;;4970169;28;20074;-81
2022/08/15 09:59:02;;;;;;;2.58;0.63;;;;;;;;;;4970018;28;20031;-82
2022/08/15 10:01:30;;;;;;;1.83;0.70;;;27.70;73.90;;;;;;4964034;28;20046;-82
2022/08/15 10:03:57;;;;;;;1.95;0.68;;;27.20;73.50;;;;;;4972539;28;20039;-82
2022/08/15 10:06:31;;;;;;;0.52;0.45;;;;;;;;;;4970587;28;20034;-82
2022/08/15 10:09:01;;;;;;;1.27;0.68;;;;;;;;;;4972099;28;20031;-81
2022/08/15 10:11:40;;;;;;;1.73;0.55;;;27.30;73.00;;;;;;4974261;28;20030;-81
2022/08/15 10:14:34;;;;;;;0.50;0.30;;;27.10;73.00;;;;;;4975347;28;20023;-82
2022/08/15 10:17:22;;;;;;;1.20;0.60;;;27.50;75.00;;;;;;4973635;28;20074;-82
2022/08/15 10:19:48;;;;;;;1.20;0.50;;;;;;;;;;4969917;28;20466;-83
2022/08/15 10:22:23;;;;;;;0.57;0.30;;;26.20;81.90;;;;;;4973817;28;20038;-82
2022/08/15 10:25:37;;;;;;;0.98;0.43;;;26.70;74.00;;;;;;4978756;28;20031;-81
2022/08/15 10:28:12;;;;;;;1.00;0.50;;;27.40;73.80;;;;;;4990052;28;20489;-79
2022/08/15 10:30:58;;;;;;;2.58;0.80;;;27.10;72.40;;;;;;4981076;28;20120;-82
2022/08/15 10:33:29;;;;;;;2.60;0.63;;;;;;;;;;4976091;28;20501;-83
2022/08/15 10:36:26;;;;;;;1.15;0.65;;;27.80;71.60;;;;;;4973824;28;20038;-82
2022/08/15 10:39:12;;;;;;;3.60;0.52;;;;;;;;;;4969163;28;20045;-82
2022/08/15 10:41:52;;;;;;;0.80;0.50;;;27.90;70.10;;;;;;4969231;28;21250;-82
2022/08/15 10:44:41;;;;;;;0.63;0.40;;;27.30;70.40;;;;;;4973978;28;20134;-81
2022/08/15 10:47:23;;;;;;;0.70;0.40;;;;;;;;;;4963097;28;20118;-82
2022/08/15 10:50:19;;;;;;;0.40;0.22;;;27.20;69.20;;;;;;4973615;28;20522;-82
2022/08/15 10:53:09;;;;;;;0.98;0.50;;;27.20;83.30;;;;;;4964711;28;20027;-81
2022/08/15 10:55:39;;;;;;;1.60;0.52;;;27.30;71.00;;;;;;4973894;28;20057;-83
2022/08/15 10:58:09;;;;;;;2.05;0.47;;;27.70;71.80;;;;;;4975035;28;20054;-82
2022/08/15 11:00:38;;;;;;;1.20;0.45;;;;;;;;;;4969010;28;20062;-82
2022/08/15 11:03:11;;;;;;;2.22;0.45;;;27.30;69.10;;;;;;4971793;28;20050;-83
2022/08/15 11:05:37;;;;;;;0.90;0.57;;;;;;;;;;4965748;28;20062;-85
2022/08/15 11:08:03;;;;;;;2.22;0.43;;;;;;;;;;4966996;28;20442;-82
2022/08/15 11:10:32;;;;;;;0.95;0.45;;;27.90;69.50;;;;;;4970669;28;20018;-82
2022/08/15 11:13:11;;;;;;;1.83;0.50;;;28.80;67.60;;;;;;4976602;28;20317;-83
2022/08/15 11:15:50;;;;;;;1.30;0.60;;;27.70;66.20;;;;;;4972982;28;20034;-83
2022/08/15 11:18:25;;;;;;;1.33;0.65;;;28.30;68.60;;;;;;4973305;28;20034;-81
2022/08/15 11:20:55;;;;;;;1.35;0.38;;;27.20;68.90;;;;;;4964796;28;20066;-82
2022/08/15 11:23:36;;;;;;;0.52;0.40;;;27.20;68.60;;;;;;4970226;28;20042;-81
2022/08/15 11:26:03;;;;;;;0.77;0.57;;;;;;;;;;4970066;28;20038;-79
2022/08/15 11:28:30;;;;;;;0.98;0.60;;;;;;;;;;4969544;28;20065;-85
2022/08/15 11:31:02;;;;;;;1.55;0.80;;;;;;;;;;4975849;28;20034;-84
2022/08/15 11:33:42;;;;;;;1.38;0.63;;;27.10;67.20;;;;;;4986217;28;20054;-88
2022/08/15 11:36:08;;;;;;;0.80;0.50;;;;;;;;;;4986713;28;20135;-87
2022/08/15 11:38:36;;;;;;;1.70;0.70;;;27.80;66.70;;;;;;4988252;28;20045;-80
2022/08/15 11:41:04;;;;;;;1.35;0.40;;;27.90;64.50;;;;;;4978209;28;20039;-83
2022/08/15 11:43:32;;;;;;;1.33;0.40;;;29.10;66.40;;;;;;4973482;28;20125;-84
2022/08/15 11:45:58;;;;;;;0.85;0.40;;;;;;;;;;4975905;28;20097;-83
2022/08/15 11:48:33;;;;;;;3.20;0.50;;;28.50;62.80;;;;;;4971565;28;20094;-81
2022/08/15 11:51:14;;;;;;;2.08;0.30;;;28.30;63.10;;;;;;4959974;28;20035;-82
2022/08/15 11:54:03;;;;;;;0.50;0.38;;;29.30;62.60;;;;;;4968295;28;20073;-80
2022/08/15 11:56:48;;;;;;;0.40;0.20;;;28.60;67.50;;;;;;4970452;28;20388;-81
2022/08/15 11:59:33;;;;;;;1.17;0.68;;;28.30;63.10;;;;;;4973342;28;20029;-82
2022/08/15 12:02:02;;;;;;;1.38;0.40;;;29.20;64.20;;;;;;4964988;28;20069;-81
2022/08/15 12:04:33;;;;;;;0.90;0.40;;;29.40;63.80;;;;;;4972649;28;20058;-82
2022/08/15 12:07:20;;;;;;;1.40;0.40;;;28.70;62.10;;;;;;4974520;28;20069;-82
2022/08/15 12:10:06;;;;;;;0.50;0.30;;;28.30;61.80;;;;;;4971329;28;20058;-82
2022/08/15 12:12:38;;;;;;;0.77;0.40;;;;;;;;;;4972710;28;20035;-83
2022/08/15 12:15:13;;;;;;;0.60;0.30;;;29.00;61.50;;;;;;4976339;28;20034;-85
2022/08/15 12:17:41;;;;;;;0.88;0.35;;;;;;;;;;4972014;28;20065;-84
2022/08/15 12:20:08;;;;;;;4.80;0.35;;;;;;;;;;4974089;28;20046;-81
2022/08/15 12:22:34;;;;;;;0.85;0.40;;;;;;;;;;4974614;28;20062;-82
2022/08/15 12:25:03;;;;;;;0.63;0.40;;;28.20;61.70;;;;;;4964155;28;20058;-83
2022/08/15 12:27:29;;;;;;;0.98;0.40;;;;;;;;;;4978049;28;20019;-82
2022/08/15 12:29:55;;;;;;;0.85;0.40;;;;;;;;;;4975093;28;20768;-81
2022/08/15 12:32:22;;;;;;;0.50;0.40;;;;;;;;;;4964238;28;20031;-83
2022/08/15 12:34:49;;;;;;;0.77;0.40;;;;;;;;;;4971364;28;20047;-82
2022/08/15 12:37:25;;;;;;;2.28;0.65;;;28.00;61.40;;;;;;4972241;28;20579;-83
2022/08/15 12:40:00;;;;;;;2.42;0.50;;;28.40;60.80;;;;;;4969051;28;20372;-83
2022/08/15 12:42:30;;;;;;;0.93;0.40;;;28.30;61.00;;;;;;4960962;28;20042;-83
2022/08/15 12:45:03;;;;;;;0.98;0.60;;;29.00;61.70;;;;;;4966644;28;20546;-80
2022/08/15 12:47:31;;;;;;;1.65;0.40;;;28.50;61.00;;;;;;4974363;28;20081;-81
2022/08/15 12:49:58;;;;;;;1.23;0.55;;;;;;;;;;4974152;28;20113;-81
2022/08/15 12:52:24;;;;;;;0.85;0.45;;;;;;;;;;4965432;28;20033;-83
2022/08/15 12:54:54;;;;;;;1.80;0.65;;;28.80;59.70;;;;;;4973585;28;20113;-83
2022/08/15 12:57:20;;;;;;;2.38;0.70;;;;;;;;;;4974817;28;20023;-81
2022/08/15 12:59:45;;;;;;;0.80;0.57;;;29.00;73.10;;;;;;4973822;28;20034;-80
2022/08/15 13:02:12;;;;;;;1.15;0.52;;;29.20;60.10;;;;;;4975231;28;20093;-82
2022/08/15 13:04:43;;;;;;;0.30;0.30;;;29.10;61.40;;;;;;4977951;28;20026;-81
2022/08/15 13:07:09;;;;;;;3.55;0.40;;;;;;;;;;4967033;28;20042;-82
2022/08/15 13:09:34;;;;;;;0.80;0.50;;;29.40;71.60;;;;;;4972820;28;20065;-84
2022/08/15 13:12:01;;;;;;;1.23;0.63;;;29.60;61.50;;;;;;4978127;28;20114;-82
2022/08/15 13:14:27;;;;;;;1.42;0.68;;;;;;;;;;4973918;28;21274;-82
2022/08/15 13:16:54;;;;;;;1.58;0.70;;;29.30;69.20;;;;;;4971270;28;20038;-83
2022/08/15 13:19:30;;;;;;;0.82;0.40;;;29.30;70.00;;;;;;4956021;28;20047;-83
2022/08/15 13:24:41;;;;;;;0.75;0.60;;;;;;;;;;4973781;28;20029;-82
2022/08/15 13:27:07;;;;;;;2.22;0.80;;;29.50;58.20;;;;;;4974612;28;20031;-81
2022/08/15 13:29:34;;;;;;;2.63;0.82;;;28.50;57.30;;;;;;4975006;28;20022;-82
2022/08/15 13:32:01;;;;;;;1.55;1.35;;;28.10;57.80;;;;;;4974294;28;20057;-82
2022/08/15 13:34:31;;;;;;;1.50;0.77;;;28.80;61.50;;;;;;4970103;28;20038;-81
2022/08/15 13:36:57;;;;;;;2.70;1.00;;;;;;;;;;4967908;28;20027;-83
2022/08/15 13:39:37;;;;;;;3.58;0.60;;;28.60;58.10;;;;;;4973422;28;20039;-82
2022/08/15 13:42:03;;;;;;;1.15;0.70;;;;;;;;;;4974473;28;20046;-84
2022/08/15 13:44:31;;;;;;;1.60;0.82;;;;;;;;;;4973983;28;20046;-84
2022/08/15 13:46:58;;;;;;;1.48;0.70;;;28.70;58.90;;;;;;4970217;28;20337;-81
2022/08/15 13:49:24;;;;;;;3.47;0.75;;;;;;;;;;4967199;28;20041;-84
2022/08/15 13:51:53;;;;;;;1.05;0.65;;;27.80;58.20;;;;;;4949131;28;20157;-84
2022/08/15 13:54:20;;;;;;;0.88;0.52;;;27.80;59.10;;;;;;4964346;28;20038;-85
2022/08/15 13:56:46;;;;;;;1.63;0.80;;;27.60;71.30;;;;;;4970345;28;20114;-84